sensor_id;sensor_type;location;lat;lon;timestamp;P1;durP1;ratioP1;P2;durP2;ratioP2
69185;SDS011;56298;49.246;9.410;2023-09-08T00:00:06;8.40;;;4.60;;
69185;SDS011;56298;49.246;9.410;2023-09-08T00:02:34;10.43;;;4.78;;
69185;SDS011;56298;49.246;9.410;2023-09-08T00:04:59;10.93;;;5.23;;
69185;SDS011;56298;49.246;9.410;2023-09-08T00:07:24;9.33;;;4.87;;
69185;SDS011;56298;49.246;9.410;2023-09-08T00:09:49;9.07;;;4.80;;
69185;SDS011;56298;49.246;9.410;2023-09-08T00:12:15;9.03;;;4.70;;
69185;SDS011;56298;49.246;9.410;2023-09-08T00:14:40;10.13;;;4.90;;
69185;SDS011;56298;49.246;9.410;2023-09-08T00:17:05;10.13;;;5.10;;
69185;SDS011;56298;49.246;9.410;2023-09-08T00:19:31;8.80;;;4.50;;
69185;SDS011;56298;49.246;9.410;2023-09-08T00:21:56;9.23;;;4.87;;
69185;SDS011;56298;49.246;9.410;2023-09-08T00:24:21;9.50;;;4.93;;
69185;SDS011;56298;49.246;9.410;2023-09-08T00:26:47;8.50;;;4.87;;
69185;SDS011;56298;49.246;9.410;2023-09-08T00:29:12;11.03;;;5.07;;
69185;SDS011;56298;49.246;9.410;2023-09-08T00:31:37;9.70;;;5.07;;
69185;SDS011;56298;49.246;9.410;2023-09-08T00:34:03;9.20;;;4.90;;
69185;SDS011;56298;49.246;9.410;2023-09-08T00:36:28;9.47;;;5.40;;
69185;SDS011;56298;49.246;9.410;2023-09-08T00:38:53;10.80;;;5.23;;
69185;SDS011;56298;49.246;9.410;2023-09-08T00:41:18;9.40;;;4.90;;
69185;SDS011;56298;49.246;9.410;2023-09-08T00:43:44;9.43;;;5.10;;
69185;SDS011;56298;49.246;9.410;2023-09-08T00:46:09;9.63;;;4.93;;
69185;SDS011;56298;49.246;9.410;2023-09-08T00:48:35;12.85;;;5.38;;
69185;SDS011;56298;49.246;9.410;2023-09-08T00:51:02;8.75;;;4.85;;
69185;SDS011;56298;49.246;9.410;2023-09-08T00:53:30;10.68;;;5.07;;
69185;SDS011;56298;49.246;9.410;2023-09-08T00:55:55;9.70;;;5.20;;
69185;SDS011;56298;49.246;9.410;2023-09-08T00:58:21;9.05;;;5.00;;
69185;SDS011;56298;49.246;9.410;2023-09-08T01:00:46;12.30;;;5.37;;
69185;SDS011;56298;49.246;9.410;2023-09-08T01:03:12;9.57;;;5.00;;
69185;SDS011;56298;49.246;9.410;2023-09-08T01:05:37;9.77;;;5.47;;
69185;SDS011;56298;49.246;9.410;2023-09-08T01:08:03;10.55;;;5.28;;
69185;SDS011;56298;49.246;9.410;2023-09-08T01:10:29;10.30;;;5.30;;
69185;SDS011;56298;49.246;9.410;2023-09-08T01:12:54;9.90;;;4.90;;
69185;SDS011;56298;49.246;9.410;2023-09-08T01:15:20;12.00;;;5.43;;
69185;SDS011;56298;49.246;9.410;2023-09-08T01:17:45;10.93;;;5.07;;
69185;SDS011;56298;49.246;9.410;2023-09-08T01:20:16;11.10;;;5.53;;
69185;SDS011;56298;49.246;9.410;2023-09-08T01:25:30;10.27;;;5.20;;
69185;SDS011;56298;49.246;9.410;2023-09-08T01:28:00;10.18;;;5.40;;
69185;SDS011;56298;49.246;9.410;2023-09-08T01:30:27;9.77;;;5.30;;
69185;SDS011;56298;49.246;9.410;2023-09-08T01:32:54;12.05;;;5.75;;
69185;SDS011;56298;49.246;9.410;2023-09-08T01:35:20;9.52;;;5.00;;
69185;SDS011;56298;49.246;9.410;2023-09-08T01:37:46;10.93;;;5.47;;
69185;SDS011;56298;49.246;9.410;2023-09-08T01:40:13;10.30;;;5.30;;
69185;SDS011;56298;49.246;9.410;2023-09-08T01:42:38;12.40;;;5.70;;
69185;SDS011;56298;49.246;9.410;2023-09-08T01:45:04;11.07;;;5.72;;
69185;SDS011;56298;49.246;9.410;2023-09-08T01:47:30;12.10;;;5.50;;
69185;SDS011;56298;49.246;9.410;2023-09-08T01:49:56;10.60;;;5.80;;
69185;SDS011;56298;49.246;9.410;2023-09-08T01:52:21;10.18;;;5.55;;
69185;SDS011;56298;49.246;9.410;2023-09-08T01:54:46;10.73;;;5.87;;
69185;SDS011;56298;49.246;9.410;2023-09-08T01:57:11;10.07;;;5.70;;
69185;SDS011;56298;49.246;9.410;2023-09-08T01:59:37;10.53;;;6.17;;
69185;SDS011;56298;49.246;9.410;2023-09-08T02:02:02;10.87;;;5.63;;
69185;SDS011;56298;49.246;9.410;2023-09-08T02:04:28;10.48;;;5.78;;
69185;SDS011;56298;49.246;9.410;2023-09-08T02:06:53;11.13;;;5.70;;
69185;SDS011;56298;49.246;9.410;2023-09-08T02:09:19;10.73;;;5.57;;
69185;SDS011;56298;49.246;9.410;2023-09-08T02:11:44;11.13;;;6.27;;
69185;SDS011;56298;49.246;9.410;2023-09-08T02:14:09;11.27;;;5.80;;
69185;SDS011;56298;49.246;9.410;2023-09-08T02:16:34;10.50;;;5.70;;
69185;SDS011;56298;49.246;9.410;2023-09-08T02:19:00;10.63;;;5.70;;
69185;SDS011;56298;49.246;9.410;2023-09-08T02:21:25;10.80;;;5.87;;
69185;SDS011;56298;49.246;9.410;2023-09-08T02:23:50;10.90;;;5.60;;
69185;SDS011;56298;49.246;9.410;2023-09-08T02:26:15;11.00;;;5.60;;
69185;SDS011;56298;49.246;9.410;2023-09-08T02:28:41;11.53;;;6.00;;
69185;SDS011;56298;49.246;9.410;2023-09-08T02:31:06;11.50;;;6.00;;
69185;SDS011;56298;49.246;9.410;2023-09-08T02:33:31;10.80;;;5.87;;
69185;SDS011;56298;49.246;9.410;2023-09-08T02:36:01;11.30;;;5.60;;
69185;SDS011;56298;49.246;9.410;2023-09-08T02:38:30;11.38;;;5.57;;
69185;SDS011;56298;49.246;9.410;2023-09-08T02:40:56;9.80;;;5.30;;
69185;SDS011;56298;49.246;9.410;2023-09-08T02:43:21;10.10;;;5.73;;
69185;SDS011;56298;49.246;9.410;2023-09-08T02:45:46;11.23;;;5.90;;
69185;SDS011;56298;49.246;9.410;2023-09-08T02:48:12;11.43;;;5.70;;
69185;SDS011;56298;49.246;9.410;2023-09-08T02:50:37;11.13;;;6.10;;
69185;SDS011;56298;49.246;9.410;2023-09-08T02:53:02;11.77;;;6.23;;
69185;SDS011;56298;49.246;9.410;2023-09-08T02:55:28;10.23;;;6.20;;
69185;SDS011;56298;49.246;9.410;2023-09-08T02:57:54;12.38;;;5.60;;
69185;SDS011;56298;49.246;9.410;2023-09-08T03:00:20;10.00;;;5.60;;
69185;SDS011;56298;49.246;9.410;2023-09-08T03:02:45;10.77;;;5.30;;
69185;SDS011;56298;49.246;9.410;2023-09-08T03:05:10;11.10;;;5.80;;
69185;SDS011;56298;49.246;9.410;2023-09-08T03:07:36;10.37;;;6.03;;
69185;SDS011;56298;49.246;9.410;2023-09-08T03:10:02;11.60;;;5.78;;
69185;SDS011;56298;49.246;9.410;2023-09-08T03:12:28;11.15;;;6.20;;
69185;SDS011;56298;49.246;9.410;2023-09-08T03:14:54;11.43;;;5.90;;
69185;SDS011;56298;49.246;9.410;2023-09-08T03:17:20;9.93;;;5.77;;
69185;SDS011;56298;49.246;9.410;2023-09-08T03:19:45;13.57;;;5.97;;
69185;SDS011;56298;49.246;9.410;2023-09-08T03:22:11;10.77;;;5.60;;
69185;SDS011;56298;49.246;9.410;2023-09-08T03:24:36;12.40;;;6.07;;
69185;SDS011;56298;49.246;9.410;2023-09-08T03:27:01;14.40;;;5.97;;
69185;SDS011;56298;49.246;9.410;2023-09-08T03:29:27;10.67;;;6.30;;
69185;SDS011;56298;49.246;9.410;2023-09-08T03:31:52;10.80;;;6.00;;
69185;SDS011;56298;49.246;9.410;2023-09-08T03:34:17;10.77;;;6.17;;
69185;SDS011;56298;49.246;9.410;2023-09-08T03:36:45;11.07;;;6.40;;
69185;SDS011;56298;49.246;9.410;2023-09-08T03:39:10;10.33;;;6.00;;
69185;SDS011;56298;49.246;9.410;2023-09-08T03:41:35;11.83;;;5.80;;
69185;SDS011;56298;49.246;9.410;2023-09-08T03:44:01;11.70;;;5.90;;
69185;SDS011;56298;49.246;9.410;2023-09-08T03:46:26;10.40;;;5.43;;
69185;SDS011;56298;49.246;9.410;2023-09-08T03:48:51;10.97;;;6.00;;
69185;SDS011;56298;49.246;9.410;2023-09-08T03:51:19;11.20;;;6.10;;
69185;SDS011;56298;49.246;9.410;2023-09-08T03:53:44;10.90;;;5.70;;
69185;SDS011;56298;49.246;9.410;2023-09-08T03:56:10;9.97;;;6.00;;
69185;SDS011;56298;49.246;9.410;2023-09-08T03:58:35;11.37;;;6.17;;
69185;SDS011;56298;49.246;9.410;2023-09-08T04:01:00;11.63;;;6.27;;
69185;SDS011;56298;49.246;9.410;2023-09-08T04:03:25;10.32;;;6.28;;
69185;SDS011;56298;49.246;9.410;2023-09-08T04:05:51;10.90;;;6.33;;
69185;SDS011;56298;49.246;9.410;2023-09-08T04:08:16;10.50;;;6.07;;
69185;SDS011;56298;49.246;9.410;2023-09-08T04:10:41;11.37;;;6.10;;
69185;SDS011;56298;49.246;9.410;2023-09-08T04:13:06;9.43;;;5.70;;
69185;SDS011;56298;49.246;9.410;2023-09-08T04:15:32;10.90;;;6.00;;
69185;SDS011;56298;49.246;9.410;2023-09-08T04:17:57;11.63;;;6.57;;
69185;SDS011;56298;49.246;9.410;2023-09-08T04:20:22;11.00;;;6.53;;
69185;SDS011;56298;49.246;9.410;2023-09-08T04:22:48;11.67;;;6.73;;
69185;SDS011;56298;49.246;9.410;2023-09-08T04:25:13;12.40;;;6.50;;
69185;SDS011;56298;49.246;9.410;2023-09-08T04:27:38;11.45;;;6.40;;
69185;SDS011;56298;49.246;9.410;2023-09-08T04:30:05;11.23;;;6.77;;
69185;SDS011;56298;49.246;9.410;2023-09-08T04:32:30;11.77;;;6.25;;
69185;SDS011;56298;49.246;9.410;2023-09-08T04:34:56;11.03;;;6.23;;
69185;SDS011;56298;49.246;9.410;2023-09-08T04:37:21;12.47;;;6.80;;
69185;SDS011;56298;49.246;9.410;2023-09-08T04:39:46;10.67;;;6.23;;
69185;SDS011;56298;49.246;9.410;2023-09-08T04:42:12;11.37;;;6.57;;
69185;SDS011;56298;49.246;9.410;2023-09-08T04:44:37;11.37;;;6.30;;
69185;SDS011;56298;49.246;9.410;2023-09-08T04:47:03;11.17;;;6.67;;
69185;SDS011;56298;49.246;9.410;2023-09-08T04:49:29;11.63;;;6.55;;
69185;SDS011;56298;49.246;9.410;2023-09-08T04:51:54;11.47;;;6.60;;
69185;SDS011;56298;49.246;9.410;2023-09-08T04:54:20;12.27;;;6.37;;
69185;SDS011;56298;49.246;9.410;2023-09-08T04:56:46;11.57;;;6.30;;
69185;SDS011;56298;49.246;9.410;2023-09-08T04:59:11;13.17;;;6.80;;
69185;SDS011;56298;49.246;9.410;2023-09-08T05:01:36;12.37;;;6.33;;
69185;SDS011;56298;49.246;9.410;2023-09-08T05:04:02;14.43;;;6.80;;
69185;SDS011;56298;49.246;9.410;2023-09-08T05:06:28;10.60;;;6.18;;
69185;SDS011;56298;49.246;9.410;2023-09-08T05:08:54;11.20;;;6.63;;
69185;SDS011;56298;49.246;9.410;2023-09-08T05:11:19;11.73;;;6.40;;
69185;SDS011;56298;49.246;9.410;2023-09-08T05:13:45;10.47;;;6.83;;
69185;SDS011;56298;49.246;9.410;2023-09-08T05:16:11;10.77;;;6.53;;
69185;SDS011;56298;49.246;9.410;2023-09-08T05:18:40;10.73;;;6.67;;
69185;SDS011;56298;49.246;9.410;2023-09-08T05:21:06;10.07;;;5.93;;
69185;SDS011;56298;49.246;9.410;2023-09-08T05:23:32;9.93;;;6.10;;
69185;SDS011;56298;49.246;9.410;2023-09-08T05:25:57;10.50;;;5.90;;
69185;SDS011;56298;49.246;9.410;2023-09-08T05:28:23;11.33;;;6.10;;
69185;SDS011;56298;49.246;9.410;2023-09-08T05:30:51;10.10;;;6.33;;
69185;SDS011;56298;49.246;9.410;2023-09-08T05:33:17;10.80;;;5.57;;
69185;SDS011;56298;49.246;9.410;2023-09-08T05:35:44;9.90;;;5.77;;
69185;SDS011;56298;49.246;9.410;2023-09-08T05:38:09;10.88;;;5.50;;
69185;SDS011;56298;49.246;9.410;2023-09-08T05:40:35;10.00;;;5.90;;
69185;SDS011;56298;49.246;9.410;2023-09-08T05:43:00;10.97;;;6.07;;
69185;SDS011;56298;49.246;9.410;2023-09-08T05:45:25;10.00;;;5.70;;
69185;SDS011;56298;49.246;9.410;2023-09-08T05:47:51;10.40;;;5.77;;
69185;SDS011;56298;49.246;9.410;2023-09-08T05:50:16;11.13;;;5.60;;
69185;SDS011;56298;49.246;9.410;2023-09-08T05:52:42;11.57;;;5.70;;
69185;SDS011;56298;49.246;9.410;2023-09-08T05:55:08;11.83;;;5.63;;
69185;SDS011;56298;49.246;9.410;2023-09-08T05:57:33;11.13;;;5.30;;
69185;SDS011;56298;49.246;9.410;2023-09-08T05:59:59;10.02;;;5.50;;
69185;SDS011;56298;49.246;9.410;2023-09-08T06:02:25;11.60;;;5.60;;
69185;SDS011;56298;49.246;9.410;2023-09-08T06:04:50;11.13;;;5.40;;
69185;SDS011;56298;49.246;9.410;2023-09-08T06:07:15;9.80;;;5.37;;
69185;SDS011;56298;49.246;9.410;2023-09-08T06:09:41;10.10;;;5.63;;
69185;SDS011;56298;49.246;9.410;2023-09-08T06:12:06;9.47;;;5.03;;
69185;SDS011;56298;49.246;9.410;2023-09-08T06:14:31;11.03;;;5.33;;
69185;SDS011;56298;49.246;9.410;2023-09-08T06:16:56;9.50;;;5.10;;
69185;SDS011;56298;49.246;9.410;2023-09-08T06:19:22;8.83;;;5.03;;
69185;SDS011;56298;49.246;9.410;2023-09-08T06:21:47;8.27;;;4.97;;
69185;SDS011;56298;49.246;9.410;2023-09-08T06:24:12;10.10;;;5.13;;
69185;SDS011;56298;49.246;9.410;2023-09-08T06:26:37;9.70;;;5.25;;
69185;SDS011;56298;49.246;9.410;2023-09-08T06:29:03;9.48;;;5.40;;
69185;SDS011;56298;49.246;9.410;2023-09-08T06:31:28;10.40;;;5.27;;
69185;SDS011;56298;49.246;9.410;2023-09-08T06:33:54;10.93;;;4.83;;
69185;SDS011;56298;49.246;9.410;2023-09-08T06:36:19;9.27;;;4.60;;
69185;SDS011;56298;49.246;9.410;2023-09-08T06:38:44;8.13;;;4.67;;
69185;SDS011;56298;49.246;9.410;2023-09-08T06:41:12;9.73;;;4.90;;
69185;SDS011;56298;49.246;9.410;2023-09-08T06:43:38;8.43;;;4.70;;
69185;SDS011;56298;49.246;9.410;2023-09-08T06:46:03;9.13;;;4.70;;
69185;SDS011;56298;49.246;9.410;2023-09-08T06:48:29;8.00;;;4.40;;
69185;SDS011;56298;49.246;9.410;2023-09-08T06:50:55;8.77;;;4.63;;
69185;SDS011;56298;49.246;9.410;2023-09-08T06:53:21;8.52;;;4.53;;
69185;SDS011;56298;49.246;9.410;2023-09-08T06:55:47;9.05;;;4.75;;
69185;SDS011;56298;49.246;9.410;2023-09-08T06:58:12;8.27;;;4.50;;
69185;SDS011;56298;49.246;9.410;2023-09-08T07:00:39;8.87;;;4.33;;
69185;SDS011;56298;49.246;9.410;2023-09-08T07:03:05;7.85;;;4.32;;
69185;SDS011;56298;49.246;9.410;2023-09-08T07:05:30;8.30;;;4.40;;
69185;SDS011;56298;49.246;9.410;2023-09-08T07:07:56;8.93;;;4.50;;
69185;SDS011;56298;49.246;9.410;2023-09-08T07:10:21;9.20;;;4.77;;
69185;SDS011;56298;49.246;9.410;2023-09-08T07:12:46;8.50;;;4.30;;
69185;SDS011;56298;49.246;9.410;2023-09-08T07:15:13;7.88;;;4.30;;
69185;SDS011;56298;49.246;9.410;2023-09-08T07:17:38;10.50;;;4.80;;
69185;SDS011;56298;49.246;9.410;2023-09-08T07:20:03;7.20;;;4.30;;
69185;SDS011;56298;49.246;9.410;2023-09-08T07:22:29;8.45;;;4.78;;
69185;SDS011;56298;49.246;9.410;2023-09-08T07:24:54;10.53;;;4.47;;
69185;SDS011;56298;49.246;9.410;2023-09-08T07:27:20;8.90;;;4.40;;
69185;SDS011;56298;49.246;9.410;2023-09-08T07:29:45;8.10;;;4.40;;
69185;SDS011;56298;49.246;9.410;2023-09-08T07:32:12;8.27;;;4.10;;
69185;SDS011;56298;49.246;9.410;2023-09-08T07:34:38;7.00;;;4.30;;
69185;SDS011;56298;49.246;9.410;2023-09-08T07:37:03;7.43;;;4.23;;
69185;SDS011;56298;49.246;9.410;2023-09-08T07:39:28;7.60;;;4.47;;
69185;SDS011;56298;49.246;9.410;2023-09-08T07:41:55;8.48;;;4.28;;
69185;SDS011;56298;49.246;9.410;2023-09-08T07:44:21;8.00;;;4.37;;
69185;SDS011;56298;49.246;9.410;2023-09-08T07:46:46;7.25;;;4.32;;
69185;SDS011;56298;49.246;9.410;2023-09-08T07:49:14;8.02;;;4.50;;
69185;SDS011;56298;49.246;9.410;2023-09-08T07:51:40;8.50;;;4.57;;
69185;SDS011;56298;49.246;9.410;2023-09-08T07:54:05;6.80;;;4.40;;
69185;SDS011;56298;49.246;9.410;2023-09-08T07:56:31;7.22;;;4.43;;
69185;SDS011;56298;49.246;9.410;2023-09-08T07:58:57;6.80;;;4.00;;
69185;SDS011;56298;49.246;9.410;2023-09-08T08:01:23;7.03;;;4.10;;
69185;SDS011;56298;49.246;9.410;2023-09-08T08:03:48;7.50;;;4.13;;
69185;SDS011;56298;49.246;9.410;2023-09-08T08:06:13;7.07;;;4.20;;
69185;SDS011;56298;49.246;9.410;2023-09-08T08:08:39;7.03;;;3.73;;
69185;SDS011;56298;49.246;9.410;2023-09-08T08:11:12;10.60;;;4.43;;
69185;SDS011;56298;49.246;9.410;2023-09-08T08:13:38;7.30;;;4.07;;
69185;SDS011;56298;49.246;9.410;2023-09-08T08:16:03;6.70;;;4.37;;
69185;SDS011;56298;49.246;9.410;2023-09-08T08:18:29;7.60;;;4.40;;
69185;SDS011;56298;49.246;9.410;2023-09-08T08:20:54;7.20;;;4.23;;
69185;SDS011;56298;49.246;9.410;2023-09-08T08:23:19;6.77;;;3.83;;
69185;SDS011;56298;49.246;9.410;2023-09-08T08:25:45;7.77;;;4.40;;
69185;SDS011;56298;49.246;9.410;2023-09-08T08:28:10;7.22;;;4.18;;
69185;SDS011;56298;49.246;9.410;2023-09-08T08:30:35;6.97;;;4.05;;
69185;SDS011;56298;49.246;9.410;2023-09-08T08:33:01;7.53;;;4.40;;
69185;SDS011;56298;49.246;9.410;2023-09-08T08:35:26;6.90;;;3.73;;
69185;SDS011;56298;49.246;9.410;2023-09-08T08:37:51;6.80;;;4.13;;
69185;SDS011;56298;49.246;9.410;2023-09-08T08:40:17;7.80;;;4.33;;
69185;SDS011;56298;49.246;9.410;2023-09-08T08:42:42;8.30;;;4.20;;
69185;SDS011;56298;49.246;9.410;2023-09-08T08:45:09;7.50;;;4.00;;
69185;SDS011;56298;49.246;9.410;2023-09-08T08:47:34;7.03;;;4.13;;
69185;SDS011;56298;49.246;9.410;2023-09-08T08:50:00;6.80;;;3.70;;
69185;SDS011;56298;49.246;9.410;2023-09-08T08:52:27;9.20;;;4.00;;
69185;SDS011;56298;49.246;9.410;2023-09-08T08:54:53;6.93;;;4.20;;
69185;SDS011;56298;49.246;9.410;2023-09-08T08:57:19;6.95;;;3.83;;
69185;SDS011;56298;49.246;9.410;2023-09-08T08:59:46;8.35;;;4.20;;
69185;SDS011;56298;49.246;9.410;2023-09-08T09:02:13;6.70;;;3.95;;
69185;SDS011;56298;49.246;9.410;2023-09-08T09:04:39;9.63;;;4.13;;
69185;SDS011;56298;49.246;9.410;2023-09-08T09:07:05;8.30;;;4.15;;
69185;SDS011;56298;49.246;9.410;2023-09-08T09:09:31;7.03;;;4.15;;
69185;SDS011;56298;49.246;9.410;2023-09-08T09:11:56;7.60;;;4.00;;
69185;SDS011;56298;49.246;9.410;2023-09-08T09:14:22;10.60;;;4.20;;
69185;SDS011;56298;49.246;9.410;2023-09-08T09:16:48;8.00;;;4.32;;
69185;SDS011;56298;49.246;9.410;2023-09-08T09:19:20;6.67;;;3.73;;
69185;SDS011;56298;49.246;9.410;2023-09-08T09:21:52;8.00;;;4.32;;
69185;SDS011;56298;49.246;9.410;2023-09-08T09:27:08;9.27;;;4.40;;
69185;SDS011;56298;49.246;9.410;2023-09-08T09:29:34;7.77;;;3.90;;
69185;SDS011;56298;49.246;9.410;2023-09-08T09:32:10;7.38;;;4.10;;
69185;SDS011;56298;49.246;9.410;2023-09-08T09:34:35;8.83;;;4.23;;
69185;SDS011;56298;49.246;9.410;2023-09-08T09:37:01;7.40;;;4.43;;
69185;SDS011;56298;49.246;9.410;2023-09-08T09:39:26;7.40;;;4.25;;
69185;SDS011;56298;49.246;9.410;2023-09-08T09:41:56;7.87;;;4.13;;
69185;SDS011;56298;49.246;9.410;2023-09-08T09:44:22;7.75;;;4.20;;
69185;SDS011;56298;49.246;9.410;2023-09-08T09:46:50;8.10;;;4.03;;
69185;SDS011;56298;49.246;9.410;2023-09-08T09:49:17;7.27;;;4.10;;
69185;SDS011;56298;49.246;9.410;2023-09-08T09:51:43;7.40;;;4.00;;
69185;SDS011;56298;49.246;9.410;2023-09-08T09:54:09;7.97;;;4.00;;
69185;SDS011;56298;49.246;9.410;2023-09-08T09:56:37;7.10;;;4.25;;
69185;SDS011;56298;49.246;9.410;2023-09-08T09:59:03;7.55;;;3.85;;
69185;SDS011;56298;49.246;9.410;2023-09-08T10:01:29;7.37;;;3.60;;
69185;SDS011;56298;49.246;9.410;2023-09-08T10:03:56;7.03;;;3.80;;
69185;SDS011;56298;49.246;9.410;2023-09-08T10:06:22;6.85;;;4.05;;
69185;SDS011;56298;49.246;9.410;2023-09-08T10:08:48;7.40;;;3.90;;
69185;SDS011;56298;49.246;9.410;2023-09-08T10:11:16;8.60;;;3.70;;
69185;SDS011;56298;49.246;9.410;2023-09-08T10:13:46;7.13;;;3.92;;
69185;SDS011;56298;49.246;9.410;2023-09-08T10:16:15;6.88;;;3.70;;
69185;SDS011;56298;49.246;9.410;2023-09-08T10:18:42;8.45;;;3.78;;
69185;SDS011;56298;49.246;9.410;2023-09-08T10:21:10;6.90;;;3.78;;
69185;SDS011;56298;49.246;9.410;2023-09-08T10:23:41;7.80;;;3.60;;
69185;SDS011;56298;49.246;9.410;2023-09-08T10:26:10;9.63;;;4.25;;
69185;SDS011;56298;49.246;9.410;2023-09-08T10:28:36;7.50;;;4.10;;
69185;SDS011;56298;49.246;9.410;2023-09-08T10:31:02;6.65;;;3.63;;
69185;SDS011;56298;49.246;9.410;2023-09-08T10:33:28;7.60;;;4.23;;
69185;SDS011;56298;49.246;9.410;2023-09-08T10:35:55;7.32;;;3.78;;
69185;SDS011;56298;49.246;9.410;2023-09-08T10:38:22;8.40;;;4.00;;
69185;SDS011;56298;49.246;9.410;2023-09-08T10:40:51;6.55;;;3.92;;
69185;SDS011;56298;49.246;9.410;2023-09-08T10:43:17;6.85;;;3.65;;
69185;SDS011;56298;49.246;9.410;2023-09-08T10:45:43;7.93;;;4.30;;
69185;SDS011;56298;49.246;9.410;2023-09-08T10:48:11;8.83;;;3.93;;
69185;SDS011;56298;49.246;9.410;2023-09-08T10:50:39;6.15;;;3.83;;
69185;SDS011;56298;49.246;9.410;2023-09-08T10:53:06;7.90;;;4.18;;
69185;SDS011;56298;49.246;9.410;2023-09-08T10:55:39;6.60;;;3.92;;
69185;SDS011;56298;49.246;9.410;2023-09-08T10:58:08;7.43;;;3.90;;
69185;SDS011;56298;49.246;9.410;2023-09-08T11:00:50;6.40;;;3.90;;
69185;SDS011;56298;49.246;9.410;2023-09-08T11:03:42;7.22;;;4.13;;
69185;SDS011;56298;49.246;9.410;2023-09-08T11:06:09;7.97;;;4.20;;
69185;SDS011;56298;49.246;9.410;2023-09-08T11:08:41;7.28;;;3.78;;
69185;SDS011;56298;49.246;9.410;2023-09-08T11:11:07;7.18;;;3.83;;
69185;SDS011;56298;49.246;9.410;2023-09-08T11:13:35;7.78;;;3.67;;
69185;SDS011;56298;49.246;9.410;2023-09-08T11:16:01;7.80;;;4.20;;
69185;SDS011;56298;49.246;9.410;2023-09-08T11:18:27;7.28;;;4.00;;
69185;SDS011;56298;49.246;9.410;2023-09-08T11:20:54;6.88;;;3.67;;
69185;SDS011;56298;49.246;9.410;2023-09-08T11:23:20;5.90;;;3.60;;
69185;SDS011;56298;49.246;9.410;2023-09-08T11:25:46;6.88;;;3.58;;
69185;SDS011;56298;49.246;9.410;2023-09-08T11:28:12;6.95;;;3.92;;
69185;SDS011;56298;49.246;9.410;2023-09-08T11:30:38;6.87;;;3.80;;
69185;SDS011;56298;49.246;9.410;2023-09-08T11:33:04;7.57;;;3.97;;
69185;SDS011;56298;49.246;9.410;2023-09-08T11:35:31;7.37;;;3.90;;
69185;SDS011;56298;49.246;9.410;2023-09-08T11:38:00;8.13;;;3.95;;
69185;SDS011;56298;49.246;9.410;2023-09-08T11:40:26;6.70;;;3.70;;
69185;SDS011;56298;49.246;9.410;2023-09-08T11:42:53;6.83;;;3.90;;
69185;SDS011;56298;49.246;9.410;2023-09-08T11:45:18;6.70;;;3.80;;
69185;SDS011;56298;49.246;9.410;2023-09-08T11:47:46;9.38;;;3.85;;
69185;SDS011;56298;49.246;9.410;2023-09-08T11:50:11;7.23;;;3.50;;
69185;SDS011;56298;49.246;9.410;2023-09-08T11:52:41;6.68;;;3.58;;
69185;SDS011;56298;49.246;9.410;2023-09-08T11:55:08;7.60;;;3.78;;
69185;SDS011;56298;49.246;9.410;2023-09-08T11:57:34;6.90;;;3.70;;
69185;SDS011;56298;49.246;9.410;2023-09-08T11:59:59;7.40;;;4.43;;
69185;SDS011;56298;49.246;9.410;2023-09-08T12:02:25;9.65;;;4.00;;
69185;SDS011;56298;49.246;9.410;2023-09-08T12:04:52;6.80;;;3.87;;
69185;SDS011;56298;49.246;9.410;2023-09-08T12:07:19;6.63;;;4.03;;
69185;SDS011;56298;49.246;9.410;2023-09-08T12:09:45;7.60;;;3.60;;
69185;SDS011;56298;49.246;9.410;2023-09-08T12:12:11;7.70;;;3.90;;
69185;SDS011;56298;49.246;9.410;2023-09-08T12:14:41;7.63;;;3.70;;
69185;SDS011;56298;49.246;9.410;2023-09-08T12:17:07;6.35;;;3.67;;
69185;SDS011;56298;49.246;9.410;2023-09-08T12:19:32;7.97;;;3.77;;
69185;SDS011;56298;49.246;9.410;2023-09-08T12:22:01;6.20;;;3.70;;
69185;SDS011;56298;49.246;9.410;2023-09-08T12:24:47;6.97;;;3.50;;
69185;SDS011;56298;49.246;9.410;2023-09-08T12:27:15;6.75;;;3.70;;
69185;SDS011;56298;49.246;9.410;2023-09-08T12:29:42;6.15;;;3.75;;
69185;SDS011;56298;49.246;9.410;2023-09-08T12:32:16;7.60;;;3.78;;
69185;SDS011;56298;49.246;9.410;2023-09-08T12:34:42;7.05;;;3.63;;
69185;SDS011;56298;49.246;9.410;2023-09-08T12:37:08;8.25;;;3.97;;
69185;SDS011;56298;49.246;9.410;2023-09-08T12:39:36;6.47;;;3.85;;
69185;SDS011;56298;49.246;9.410;2023-09-08T12:42:03;6.93;;;4.00;;
69185;SDS011;56298;49.246;9.410;2023-09-08T12:44:28;6.82;;;4.05;;
69185;SDS011;56298;49.246;9.410;2023-09-08T12:46:53;6.93;;;3.90;;
69185;SDS011;56298;49.246;9.410;2023-09-08T12:49:19;6.90;;;4.00;;
69185;SDS011;56298;49.246;9.410;2023-09-08T14:13:51;10.88;;;4.35;;
69185;SDS011;56298;49.246;9.410;2023-09-08T14:16:17;7.20;;;4.13;;
69185;SDS011;56298;49.246;9.410;2023-09-08T14:18:43;7.90;;;4.60;;
69185;SDS011;56298;49.246;9.410;2023-09-08T14:21:08;6.90;;;4.30;;
69185;SDS011;56298;49.246;9.410;2023-09-08T14:23:33;7.70;;;4.27;;
69185;SDS011;56298;49.246;9.410;2023-09-08T14:25:59;6.90;;;4.20;;
69185;SDS011;56298;49.246;9.410;2023-09-08T14:28:25;8.02;;;4.57;;
69185;SDS011;56298;49.246;9.410;2023-09-08T14:30:51;8.23;;;4.30;;
69185;SDS011;56298;49.246;9.410;2023-09-08T14:33:16;7.82;;;4.57;;
69185;SDS011;56298;49.246;9.410;2023-09-08T14:35:42;7.47;;;4.33;;
69185;SDS011;56298;49.246;9.410;2023-09-08T14:38:08;9.88;;;4.47;;
69185;SDS011;56298;49.246;9.410;2023-09-08T14:40:33;6.63;;;4.07;;
69185;SDS011;56298;49.246;9.410;2023-09-08T14:42:59;7.43;;;4.40;;
69185;SDS011;56298;49.246;9.410;2023-09-08T14:45:24;6.53;;;4.10;;
69185;SDS011;56298;49.246;9.410;2023-09-08T14:47:51;8.23;;;4.30;;
69185;SDS011;56298;49.246;9.410;2023-09-08T14:50:17;8.17;;;4.17;;
69185;SDS011;56298;49.246;9.410;2023-09-08T14:52:42;6.60;;;4.07;;
69185;SDS011;56298;49.246;9.410;2023-09-08T14:55:08;8.27;;;4.27;;
69185;SDS011;56298;49.246;9.410;2023-09-08T14:57:34;8.30;;;4.43;;
69185;SDS011;56298;49.246;9.410;2023-09-08T14:59:59;8.80;;;4.30;;
69185;SDS011;56298;49.246;9.410;2023-09-08T15:02:24;10.33;;;4.10;;
69185;SDS011;56298;49.246;9.410;2023-09-08T15:04:50;8.50;;;4.37;;
69185;SDS011;56298;49.246;9.410;2023-09-08T15:07:15;8.00;;;4.27;;
69185;SDS011;56298;49.246;9.410;2023-09-08T15:09:40;9.83;;;4.27;;
69185;SDS011;56298;49.246;9.410;2023-09-08T15:12:05;7.57;;;4.43;;
69185;SDS011;56298;49.246;9.410;2023-09-08T15:14:31;8.13;;;4.60;;
69185;SDS011;56298;49.246;9.410;2023-09-08T15:16:56;8.10;;;4.40;;
69185;SDS011;56298;49.246;9.410;2023-09-08T15:19:21;6.90;;;4.27;;
69185;SDS011;56298;49.246;9.410;2023-09-08T15:21:46;8.07;;;4.20;;
69185;SDS011;56298;49.246;9.410;2023-09-08T15:24:12;7.93;;;4.37;;
69185;SDS011;56298;49.246;9.410;2023-09-08T15:26:37;8.60;;;4.53;;
69185;SDS011;56298;49.246;9.410;2023-09-08T15:29:03;7.07;;;3.88;;
69185;SDS011;56298;49.246;9.410;2023-09-08T15:31:30;8.02;;;4.32;;
69185;SDS011;56298;49.246;9.410;2023-09-08T15:33:55;8.50;;;4.40;;
69185;SDS011;56298;49.246;9.410;2023-09-08T15:36:20;6.60;;;4.10;;
69185;SDS011;56298;49.246;9.410;2023-09-08T15:38:46;7.37;;;4.27;;
69185;SDS011;56298;49.246;9.410;2023-09-08T15:41:14;7.97;;;4.10;;
69185;SDS011;56298;49.246;9.410;2023-09-08T15:43:47;6.95;;;4.40;;
69185;SDS011;56298;49.246;9.410;2023-09-08T15:46:15;10.13;;;4.38;;
69185;SDS011;56298;49.246;9.410;2023-09-08T15:48:41;6.37;;;3.97;;
69185;SDS011;56298;49.246;9.410;2023-09-08T15:51:07;6.18;;;3.95;;
69185;SDS011;56298;49.246;9.410;2023-09-08T15:53:33;8.23;;;4.00;;
69185;SDS011;56298;49.246;9.410;2023-09-08T15:55:58;7.77;;;4.47;;
69185;SDS011;56298;49.246;9.410;2023-09-08T15:58:24;6.90;;;4.20;;
69185;SDS011;56298;49.246;9.410;2023-09-08T16:00:49;7.00;;;4.05;;
69185;SDS011;56298;49.246;9.410;2023-09-08T16:03:15;7.20;;;4.13;;